ZKJNE NZKI-NZPN

Flight info

Callsign ZKJNE
Flight time N/A
Altitude 5500
Route KI WAIMA AMOTH VASLU
Aircraft C172/L-SFG/C

Departure

Time 2026-05-07 21:39
Airport Kaikoura Airport (NZKI)

Arrival

Time N/A
Airport Picton Aerodrome (NZPN)
Time Latitude Longitude Altitude Speed Heading
2026-05-07 21:39 -42.42402 173.60910 225 ft 66 kts 68°
2026-05-07 21:39 -42.42265 173.61499 432 ft 68 kts 60°
2026-05-07 21:39 -42.42086 173.62114 622 ft 71 kts 58°
2026-05-07 21:39 -42.41872 173.62735 844 ft 70 kts 58°
2026-05-07 21:40 -42.41708 173.63310 1100 ft 65 kts 59°
2026-05-07 21:40 -42.41531 173.63911 1287 ft 68 kts 56°
2026-05-07 21:40 -42.41363 173.64510 1537 ft 65 kts 55°
2026-05-07 21:40 -42.41194 173.65115 1733 ft 67 kts 57°
2026-05-07 21:41 -42.41017 173.65736 1864 ft 74 kts 55°
2026-05-07 21:41 -42.40856 173.66339 2090 ft 67 kts 53°
2026-05-07 21:41 -42.40638 173.66898 2289 ft 67 kts 49°
2026-05-07 21:41 -42.40421 173.67470 2483 ft 69 kts 49°
2026-05-07 21:42 -42.40203 173.68043 2692 ft 69 kts 50°
2026-05-07 21:42 -42.40001 173.68665 2867 ft 74 kts 55°
2026-05-07 21:42 -42.39825 173.69307 3084 ft 71 kts 50°
2026-05-07 21:42 -42.39621 173.69946 3248 ft 75 kts 49°
2026-05-07 21:43 -42.39366 173.70549 3397 ft 75 kts 43°
2026-05-07 21:43 -42.39059 173.71172 3466 ft 83 kts 45°
2026-05-07 21:43 -42.38722 173.71867 3486 ft 93 kts 46°
2026-05-07 21:43 -42.38421 173.72623 3555 ft 96 kts 50°
2026-05-07 21:44 -42.38074 173.73434 3481 ft 102 kts 49°
2026-05-07 21:44 -42.37700 173.74243 3456 ft 101 kts 46°
2026-05-07 21:44 -42.37292 173.75043 3364 ft 102 kts 43°
2026-05-07 21:44 -42.36873 173.75778 3364 ft 97 kts 40°
2026-05-07 21:45 -42.36442 173.76483 3368 ft 94 kts 38°
2026-05-07 21:45 -42.36003 173.77155 3341 ft 95 kts 36°
2026-05-07 21:45 -42.35576 173.77840 3329 ft 97 kts 44°
2026-05-07 21:45 -42.35207 173.78618 3306 ft 97 kts 41°
2026-05-07 21:46 -42.34780 173.79305 3307 ft 94 kts 37°
2026-05-07 21:46 -42.34339 173.79948 3333 ft 91 kts 35°
2026-05-07 21:46 -42.33894 173.80554 3370 ft 92 kts 32°
2026-05-07 21:46 -42.33427 173.81126 3414 ft 91 kts 30°
2026-05-07 21:47 -42.32943 173.81696 3427 ft 93 kts 28°
2026-05-07 21:47 -42.32420 173.82275 3373 ft 99 kts 29°
2026-05-07 21:47 -42.31894 173.82857 3380 ft 98 kts 30°
2026-05-07 21:47 -42.31366 173.83452 3348 ft 97 kts 30°
2026-05-07 21:48 -42.30842 173.84036 3292 ft 99 kts 28°
2026-05-07 21:48 -42.30283 173.84645 3159 ft 104 kts 30°
2026-05-07 21:48 -42.29722 173.85257 3088 ft 103 kts 28°
2026-05-07 21:48 -42.29138 173.85812 3023 ft 101 kts 26°
2026-05-07 21:49 -42.28572 173.86350 3022 ft 97 kts 27°
2026-05-07 21:49 -42.28042 173.86871 3059 ft 92 kts 26°
2026-05-07 21:49 -42.27504 173.87381 3029 ft 95 kts 26°
2026-05-07 21:49 -42.26973 173.87912 2997 ft 97 kts 27°
2026-05-07 21:50 -42.26418 173.88483 2889 ft 101 kts 29°
2026-05-07 21:50 -42.25872 173.89067 2859 ft 98 kts 31°
2026-05-07 21:50 -42.25346 173.89655 2851 ft 96 kts 30°
2026-05-07 21:50 -42.24834 173.90233 2839 ft 95 kts 29°
2026-05-07 21:51 -42.24291 173.90742 2864 ft 92 kts 20°
2026-05-07 21:51 -42.23746 173.91151 2990 ft 91 kts 20°
2026-05-07 21:51 -42.23178 173.91588 3039 ft 94 kts 22°
2026-05-07 21:51 -42.22587 173.92036 3003 ft 101 kts 21°
2026-05-07 21:52 -42.21991 173.92529 3069 ft 97 kts 24°
2026-05-07 21:52 -42.21436 173.93069 3107 ft 100 kts 27°
2026-05-07 21:52 -42.20857 173.93585 3044 ft 96 kts 19°
2026-05-07 21:52 -42.20245 173.93962 2912 ft 98 kts 14°
2026-05-07 21:53 -42.19585 173.94209 2768 ft 97 kts 10°
2026-05-07 21:53 -42.18929 173.94469 2588 ft 100 kts 10°
2026-05-07 21:53 -42.18245 173.94644 2390 ft 101 kts
2026-05-07 21:53 -42.17551 173.94827 2235 ft 100 kts
2026-05-07 21:54 -42.16911 173.95064 2198 ft 92 kts 13°
2026-05-07 21:54 -42.16278 173.95338 2052 ft 96 kts 14°
2026-05-07 21:54 -42.15660 173.95660 1952 ft 95 kts 17°
2026-05-07 21:54 -42.15048 173.95976 1852 ft 94 kts 18°
2026-05-07 21:55 -42.14450 173.96333 1715 ft 97 kts 20°
2026-05-07 21:55 -42.13840 173.96732 1599 ft 97 kts 22°
2026-05-07 21:55 -42.13201 173.97069 1456 ft 98 kts 16°
2026-05-07 21:55 -42.12558 173.97302 1392 ft 94 kts 13°
2026-05-07 21:56 -42.11922 173.97527 1275 ft 96 kts 15°
2026-05-07 21:56 -42.11284 173.97855 1156 ft 97 kts 25°
2026-05-07 21:56 -42.10706 173.98369 1052 ft 98 kts 30°
2026-05-07 21:56 -42.10097 173.98795 941 ft 99 kts 22°
2026-05-07 21:57 -42.09460 173.99129 876 ft 97 kts 17°
2026-05-07 21:57 -42.08816 173.99356 896 ft 94 kts 11°
2026-05-07 21:57 -42.08147 173.99423 852 ft 98 kts
2026-05-07 21:57 -42.07444 173.99428 837 ft 98 kts
2026-05-07 21:58 -42.06781 173.99451 831 ft 97 kts
2026-05-07 21:58 -42.06089 173.99434 797 ft 98 kts
2026-05-07 21:58 -42.05415 173.99471 772 ft 98 kts
2026-05-07 21:58 -42.04703 173.99643 622 ft 106 kts 11°
2026-05-07 21:59 -42.03997 173.99838 599 ft 103 kts
2026-05-07 21:59 -42.03286 173.99589 593 ft 105 kts 348°
2026-05-07 21:59 -42.02559 173.99565 630 ft 105 kts 19°
2026-05-07 21:59 -42.01992 174.00195 610 ft 107 kts 53°
2026-05-07 22:00 -42.01666 174.01021 766 ft 102 kts 63°
2026-05-07 22:00 -42.01711 174.02081 696 ft 129 kts 111°
2026-05-07 22:00 -42.02433 174.02760 892 ft 128 kts 167°
2026-05-07 22:00 -42.03321 174.02489 898 ft 137 kts 216°
2026-05-07 22:01 -42.04033 174.01660 912 ft 142 kts 229°
2026-05-07 22:01 -42.04671 174.00729 743 ft 129 kts 236°
2026-05-07 22:01 -42.05226 173.99821 646 ft 125 kts 237°
2026-05-07 22:01 -42.05753 173.98920 677 ft 121 kts 231°
2026-05-07 22:02 -42.06345 173.98106 778 ft 119 kts 228°
2026-05-07 22:02 -42.06937 173.97322 817 ft 124 kts 230°
2026-05-07 22:02 -42.07567 173.96541 927 ft 119 kts 225°
2026-05-07 22:02 -42.08193 173.95851 1081 ft 116 kts 220°
2026-05-07 22:03 -42.08904 173.95254 1161 ft 120 kts 212°
2026-05-07 22:03 -42.09634 173.94777 1298 ft 117 kts 207°
2026-05-07 22:03 -42.10419 173.94353 1375 ft 121 kts 202°
2026-05-07 22:03 -42.11235 173.94006 1478 ft 121 kts 196°
2026-05-07 22:04 -42.12028 173.93683 1584 ft 121 kts 199°
2026-05-07 22:04 -42.12869 173.93330 1601 ft 125 kts 202°
2026-05-07 22:04 -42.13707 173.92923 1610 ft 131 kts 203°
2026-05-07 22:04 -42.14584 173.92497 1557 ft 138 kts 204°
2026-05-07 22:05 -42.15469 173.92006 1521 ft 137 kts 208°
2026-05-07 22:05 -42.16334 173.91470 1492 ft 139 kts 207°
2026-05-07 22:05 -42.17197 173.90918 1547 ft 136 kts 209°
2026-05-07 22:05 -42.18038 173.90334 1534 ft 135 kts 214°
2026-05-07 22:06 -42.18864 173.89716 1533 ft 134 kts 212°
2026-05-07 22:06 -42.19682 173.89085 1467 ft 138 kts 215°
2026-05-07 22:06 -42.20497 173.88384 1428 ft 137 kts 217°
2026-05-07 22:06 -42.21274 173.87653 1375 ft 137 kts 222°
2026-05-07 22:07 -42.22006 173.86883 1377 ft 129 kts 224°
2026-05-07 22:07 -42.22681 173.86125 1470 ft 124 kts 227°
2026-05-07 22:07 -42.23314 173.85332 1463 ft 126 kts 230°
2026-05-07 22:07 -42.23953 173.84508 1499 ft 124 kts 229°
2026-05-07 22:08 -42.24585 173.83679 1467 ft 127 kts 231°
2026-05-07 22:08 -42.25250 173.82854 1457 ft 129 kts 223°
2026-05-07 22:08 -42.25938 173.82057 1449 ft 128 kts 229°
2026-05-07 22:08 -42.26529 173.81149 1427 ft 128 kts 239°
2026-05-07 22:09 -42.27152 173.80257 1427 ft 129 kts 229°
2026-05-07 22:09 -42.27823 173.79439 1455 ft 127 kts 228°
2026-05-07 22:09 -42.28507 173.78673 1418 ft 130 kts 223°
2026-05-07 22:09 -42.29221 173.77920 1442 ft 128 kts 223°
2026-05-07 22:10 -42.29909 173.77188 1461 ft 127 kts 223°
2026-05-07 22:10 -42.30603 173.76421 1443 ft 128 kts 225°
2026-05-07 22:10 -42.31285 173.75617 1413 ft 130 kts 228°
2026-05-07 22:10 -42.31948 173.74791 1438 ft 126 kts 230°
2026-05-07 22:11 -42.32592 173.73959 1410 ft 130 kts 229°
2026-05-07 22:11 -42.33235 173.73111 1442 ft 125 kts 231°
2026-05-07 22:11 -42.33851 173.72267 1445 ft 127 kts 231°
2026-05-07 22:11 -42.34473 173.71411 1460 ft 127 kts 231°
2026-05-07 22:12 -42.35101 173.70587 1472 ft 127 kts 229°
2026-05-07 22:12 -42.35737 173.69746 1457 ft 128 kts 230°
2026-05-07 22:12 -42.36362 173.68881 1442 ft 128 kts 232°
2026-05-07 22:12 -42.36957 173.68013 1423 ft 127 kts 231°
2026-05-07 22:13 -42.37579 173.67146 1366 ft 127 kts 233°
2026-05-07 22:13 -42.38176 173.66269 1368 ft 127 kts 234°
2026-05-07 22:13 -42.38766 173.65387 1362 ft 125 kts 234°
2026-05-07 22:13 -42.39321 173.64569 1386 ft 111 kts 235°
2026-05-07 22:14 -42.39839 173.63774 1391 ft 113 kts 236°
2026-05-07 22:14 -42.40344 173.62939 1356 ft 116 kts 240°
2026-05-07 22:14 -42.40881 173.62117 1219 ft 118 kts 224°
2026-05-07 22:14 -42.41649 173.61748 1096 ft 119 kts 181°
2026-05-07 22:15 -42.42445 173.61813 1035 ft 111 kts 180°
2026-05-07 22:15 -42.43150 173.61494 857 ft 100 kts 227°
2026-05-07 22:15 -42.43510 173.60739 784 ft 92 kts 252°
2026-05-07 22:15 -42.43780 173.59938 745 ft 98 kts 254°
2026-05-07 22:16 -42.43847 173.59146 601 ft 73 kts 316°
2026-05-07 22:16 -42.43466 173.58769 460 ft 66 kts 345°
2026-05-07 22:16 -42.43079 173.58911 339 ft 64 kts 44°
2026-05-07 22:16 -42.42838 173.59413 183 ft 60 kts 56°
2026-05-07 22:17 -42.42670 173.59918 69 ft 59 kts 58°
2026-05-07 22:17 -42.42531 173.60347 47 ft 38 kts 66°
2026-05-07 22:17 -42.42485 173.60492 47 ft 2 kts 330°
2026-05-07 22:17 -42.42504 173.60431 47 ft 12 kts 245°
2026-05-07 22:18 -42.42537 173.60326 48 ft 12 kts 247°
2026-05-07 22:18 -42.42603 173.60120 48 ft 7 kts 245°
2026-05-07 22:18 -42.42583 173.60084 48 ft 4 kts 308°
2026-05-07 22:19 -42.42592 173.60020 48 ft 5 kts 262°
2026-05-07 22:19 -42.42617 173.59988 48 ft 5 kts 230°
2026-05-07 22:19 -42.42609 173.59949 48 ft 3 kts
2026-05-07 22:19 -42.42609 173.59953 48 ft 0 kts 115°